createdAt,value
2019-01-26T00:01:28.547Z,32.60
2019-01-26T00:03:57.491Z,35.17
2019-01-26T00:06:26.551Z,36.03
2019-01-26T00:08:55.570Z,27.37
2019-01-26T00:11:24.579Z,29.23
2019-01-26T00:13:53.635Z,32.47
2019-01-26T00:16:22.661Z,31.67
2019-01-26T00:18:51.667Z,25.93
2019-01-26T00:21:20.735Z,26.90
2019-01-26T00:23:49.837Z,31.00
2019-01-26T00:26:18.849Z,30.70
2019-01-26T00:28:51.590Z,29.93
2019-01-26T00:31:20.526Z,28.97
2019-01-26T00:33:49.481Z,27.27
2019-01-26T00:36:20.592Z,30.77
2019-01-26T00:38:49.518Z,29.43
2019-01-26T00:41:18.705Z,25.00
2019-01-26T00:43:47.725Z,27.60
2019-01-26T00:46:16.759Z,28.67
2019-01-26T00:48:45.711Z,27.67
2019-01-26T00:51:17.243Z,29.60
2019-01-26T00:53:45.629Z,29.83
2019-01-26T00:56:14.653Z,28.60
2019-01-26T00:58:43.767Z,26.20
2019-01-26T01:01:13.181Z,27.37
2019-01-26T01:03:42.199Z,21.60
2019-01-26T01:06:11.368Z,30.37
2019-01-26T01:08:40.623Z,26.93
2019-01-26T01:11:09.758Z,33.13
2019-01-26T01:13:39.040Z,28.17
2019-01-26T01:16:08.151Z,32.40
2019-01-26T01:18:37.133Z,32.30
2019-01-26T01:21:06.207Z,33.27
2019-01-26T01:23:35.284Z,27.73
2019-01-26T01:26:04.364Z,27.87
2019-01-26T01:28:33.363Z,33.30
2019-01-26T01:31:02.435Z,31.40
2019-01-26T01:33:31.440Z,29.97
2019-01-26T01:36:00.471Z,30.30
2019-01-26T01:38:29.500Z,27.77
2019-01-26T01:40:58.465Z,29.07
2019-01-26T01:43:27.465Z,30.13
2019-01-26T01:45:56.432Z,28.40
2019-01-26T01:48:25.467Z,29.30
2019-01-26T01:50:54.446Z,30.73
2019-01-26T01:53:23.483Z,33.07
2019-01-26T01:55:52.571Z,29.70
2019-01-26T01:58:21.551Z,27.47
2019-01-26T02:00:50.690Z,33.90
2019-01-26T02:03:19.688Z,33.40
2019-01-26T02:05:48.723Z,27.23
2019-01-26T02:08:17.774Z,28.17
2019-01-26T02:10:46.716Z,27.57
2019-01-26T02:13:15.766Z,28.27
2019-01-26T02:15:44.823Z,27.10
2019-01-26T02:18:14.570Z,27.57
2019-01-26T02:20:43.669Z,25.30
2019-01-26T02:23:12.728Z,24.70
2019-01-26T02:25:41.740Z,26.40
2019-01-26T02:28:10.675Z,24.83
2019-01-26T02:30:39.742Z,26.00
2019-01-26T02:33:08.819Z,22.73
2019-01-26T02:35:37.862Z,22.00
2019-01-26T02:38:06.820Z,22.10
2019-01-26T02:40:35.824Z,22.63
2019-01-26T02:43:04.820Z,22.03
2019-01-26T02:45:35.558Z,18.03
2019-01-26T02:48:04.658Z,21.10
2019-01-26T02:50:33.707Z,20.33
2019-01-26T02:53:02.719Z,17.73
2019-01-26T02:55:31.639Z,17.40
2019-01-26T02:58:00.692Z,17.63
2019-01-26T03:00:29.626Z,19.53
2019-01-26T03:02:58.574Z,17.73
2019-01-26T03:05:27.640Z,18.60
2019-01-26T03:07:56.588Z,17.70
2019-01-26T03:10:25.497Z,15.40
2019-01-26T03:12:54.660Z,14.13
2019-01-26T03:15:25.827Z,15.80
2019-01-26T03:17:54.758Z,13.77
2019-01-26T03:20:23.943Z,15.87
2019-01-26T03:22:52.936Z,17.10
2019-01-26T03:25:21.978Z,15.17
2019-01-26T03:27:50.938Z,13.63
2019-01-26T03:30:22.033Z,14.70
2019-01-26T03:32:51.054Z,14.03
2019-01-26T03:35:20.225Z,13.87
2019-01-26T03:37:49.316Z,14.43
2019-01-26T03:40:20.071Z,14.30
2019-01-26T03:42:49.558Z,14.37
2019-01-26T03:45:18.632Z,13.73
2019-01-26T03:47:47.847Z,14.97
2019-01-26T03:50:16.936Z,14.60
2019-01-26T03:52:45.954Z,14.07
2019-01-26T03:55:16.915Z,12.97
2019-01-26T03:57:46.068Z,13.90
2019-01-26T04:00:20.228Z,14.13
2019-01-26T04:02:49.345Z,12.67
2019-01-26T04:05:18.629Z,11.77
2019-01-26T04:07:47.760Z,11.73
2019-01-26T04:10:16.976Z,11.83
2019-01-26T04:12:46.018Z,14.43
2019-01-26T04:15:15.881Z,12.13
2019-01-26T04:17:44.851Z,12.43
2019-01-26T04:20:16.501Z,12.07
2019-01-26T04:22:45.593Z,11.37
2019-01-26T04:25:14.799Z,10.33
2019-01-26T04:27:43.835Z,11.03
2019-01-26T04:30:16.165Z,10.03
2019-01-26T04:32:45.186Z,10.20
2019-01-26T04:35:14.519Z,10.50
2019-01-26T04:37:43.656Z,9.90
2019-01-26T04:40:14.260Z,10.90
2019-01-26T04:42:43.291Z,10.40
2019-01-26T04:45:15.091Z,10.50
2019-01-26T04:47:44.098Z,8.83
2019-01-26T04:50:14.535Z,10.00
2019-01-26T04:52:43.594Z,10.10
2019-01-26T04:55:12.955Z,9.57
2019-01-26T04:57:41.935Z,9.80
2019-01-26T05:00:17.688Z,9.00
2019-01-26T05:02:46.807Z,9.83
2019-01-26T05:05:15.877Z,10.60
2019-01-26T05:07:44.819Z,9.40
2019-01-26T05:10:14.925Z,9.97
2019-01-26T05:12:43.858Z,9.90
2019-01-26T05:15:13.908Z,9.17
2019-01-26T05:17:42.957Z,9.10
2019-01-26T05:20:14.760Z,7.80
2019-01-26T05:22:43.890Z,8.90
2019-01-26T05:25:13.058Z,8.03
2019-01-26T05:27:41.983Z,9.00
2019-01-26T05:30:23.073Z,9.23
2019-01-26T05:32:52.160Z,9.30
2019-01-26T05:35:21.166Z,8.97
2019-01-26T05:37:50.143Z,30.20
2019-01-26T05:40:19.181Z,10.33
2019-01-26T05:42:48.423Z,12.20
2019-01-26T05:45:19.212Z,9.47
2019-01-26T05:47:49.628Z,48.07
2019-01-26T05:50:21.462Z,10.27
2019-01-26T05:52:50.448Z,18.87
2019-01-26T05:55:19.560Z,10.13
2019-01-26T05:57:48.747Z,9.10
2019-01-26T06:00:28.379Z,8.67
2019-01-26T06:02:57.410Z,9.20
2019-01-26T06:05:26.496Z,8.53
2019-01-26T06:07:55.489Z,8.23
2019-01-26T06:10:24.626Z,8.10
2019-01-26T06:12:53.568Z,9.17
2019-01-26T06:15:23.305Z,8.67
2019-01-26T06:17:55.237Z,9.17
2019-01-26T06:20:23.156Z,7.77
2019-01-26T06:22:52.250Z,9.07
2019-01-26T06:25:21.512Z,9.23
2019-01-26T06:27:50.718Z,8.47
2019-01-26T06:30:21.962Z,9.07
2019-01-26T06:32:51.079Z,9.73
2019-01-26T06:35:20.155Z,12.33
2019-01-26T06:37:49.257Z,9.50
2019-01-26T06:40:18.708Z,11.83
2019-01-26T06:42:47.708Z,14.53
2019-01-26T06:45:18.359Z,10.40
2019-01-26T06:47:47.443Z,9.27
2019-01-26T06:50:21.113Z,9.40
2019-01-26T06:52:50.252Z,9.47
2019-01-26T06:55:19.410Z,9.47
2019-01-26T06:57:48.488Z,10.70
2019-01-26T07:00:20.475Z,9.70
2019-01-26T07:02:49.564Z,11.60
2019-01-26T07:05:27.893Z,9.60
2019-01-26T07:07:56.984Z,10.87
2019-01-26T07:10:25.934Z,8.90
2019-01-26T07:12:54.887Z,10.20
2019-01-26T07:15:23.933Z,10.40
2019-01-26T07:17:52.969Z,9.73
2019-01-26T07:20:22.158Z,10.57
2019-01-26T07:22:51.247Z,10.87
2019-01-26T07:25:20.672Z,10.60
2019-01-26T07:27:49.688Z,11.27
2019-01-26T07:30:20.489Z,10.60
2019-01-26T07:32:49.535Z,10.43
2019-01-26T07:35:18.620Z,12.40
2019-01-26T07:37:47.670Z,13.70
2019-01-26T07:40:18.551Z,12.97
2019-01-26T07:42:47.580Z,12.33
2019-01-26T07:45:16.707Z,11.77
2019-01-26T07:47:46.655Z,11.07
2019-01-26T07:50:18.766Z,9.43
2019-01-26T07:52:47.888Z,10.33
2019-01-26T07:55:18.252Z,9.53
2019-01-26T07:57:47.370Z,10.10
2019-01-26T08:00:19.631Z,10.77
2019-01-26T08:02:48.626Z,10.33
2019-01-26T08:05:17.949Z,12.20
2019-01-26T08:07:47.046Z,12.27
2019-01-26T08:10:18.750Z,11.63
2019-01-26T08:12:47.880Z,9.70
2019-01-26T08:15:19.602Z,12.57
2019-01-26T08:17:48.527Z,11.27
2019-01-26T08:20:18.879Z,9.90
2019-01-26T08:22:47.897Z,9.60
2019-01-26T08:25:17.255Z,10.50
2019-01-26T08:27:46.539Z,10.43
2019-01-26T08:30:17.948Z,11.23
2019-01-26T08:32:46.964Z,10.23
2019-01-26T08:35:16.179Z,9.73
2019-01-26T08:37:45.164Z,9.57
2019-01-26T08:40:16.101Z,10.70
2019-01-26T08:42:45.193Z,11.37
2019-01-26T08:45:14.571Z,15.97
2019-01-26T08:47:43.945Z,15.57
2019-01-26T08:50:18.198Z,10.07
2019-01-26T08:52:47.228Z,17.40
2019-01-26T08:55:18.216Z,31.70
2019-01-26T08:57:47.272Z,12.10
2019-01-26T09:00:19.215Z,15.70
2019-01-26T09:03:13.713Z,16.97
2019-01-26T09:06:02.959Z,14.03
2019-01-26T09:08:32.074Z,12.67
2019-01-26T09:11:01.099Z,15.27
2019-01-26T09:13:30.149Z,15.53
2019-01-26T09:15:59.360Z,13.13
2019-01-26T09:18:28.295Z,10.47
2019-01-26T09:21:00.428Z,12.57
2019-01-26T09:23:29.613Z,11.10
2019-01-26T09:25:58.536Z,12.33
2019-01-26T09:28:27.696Z,34.17
2019-01-26T09:30:56.741Z,22.57
2019-01-26T09:33:25.726Z,17.10
2019-01-26T09:35:54.821Z,13.33
2019-01-26T09:38:23.885Z,14.15
2019-01-26T09:40:53.352Z,25.63
2019-01-26T09:43:22.495Z,14.37
2019-01-26T09:45:54.343Z,12.97
2019-01-26T09:48:23.283Z,9.47
2019-01-26T09:50:52.208Z,8.23
2019-01-26T09:53:21.207Z,27.73
2019-01-26T09:55:50.367Z,26.63
2019-01-26T09:58:20.043Z,42.77
2019-01-26T10:00:49.100Z,23.67
2019-01-26T10:03:18.029Z,23.37
2019-01-26T10:05:47.049Z,14.10
2019-01-26T10:08:16.217Z,19.82
2019-01-26T10:10:45.137Z,36.73
2019-01-26T10:13:14.294Z,30.67
2019-01-26T10:15:43.494Z,19.53
2019-01-26T10:18:12.659Z,11.47
2019-01-26T10:20:41.879Z,20.57
2019-01-26T10:23:10.962Z,9.30
2019-01-26T10:25:39.932Z,7.53
2019-01-26T10:28:08.924Z,15.63
2019-01-26T10:30:43.429Z,10.13
2019-01-26T10:33:12.503Z,9.07
2019-01-26T10:35:52.579Z,10.33
2019-01-26T10:38:21.499Z,12.97
2019-01-26T10:41:08.540Z,19.30
2019-01-26T10:43:42.158Z,11.83
2019-01-26T10:46:11.143Z,10.32
2019-01-26T10:48:40.103Z,7.50
2019-01-26T10:51:09.091Z,8.00
2019-01-26T10:53:37.996Z,6.17
2019-01-26T10:56:07.008Z,6.33
2019-01-26T10:58:35.940Z,20.40
2019-01-26T11:01:05.634Z,9.43
2019-01-26T11:03:34.678Z,12.60
2019-01-26T11:06:04.031Z,11.80
2019-01-26T11:08:32.979Z,10.30
2019-01-26T11:11:01.950Z,7.53
2019-01-26T11:13:31.022Z,6.97
2019-01-26T11:16:00.021Z,12.73
2019-01-26T11:18:28.985Z,6.50
2019-01-26T11:20:57.939Z,10.60
2019-01-26T11:23:26.871Z,8.73
2019-01-26T11:25:55.810Z,6.10
2019-01-26T11:28:24.828Z,5.70
2019-01-26T11:30:53.838Z,13.57
2019-01-26T11:33:22.894Z,9.27
2019-01-26T11:35:51.958Z,15.20
2019-01-26T11:38:20.889Z,12.47
2019-01-26T11:40:50.020Z,13.50
2019-01-26T11:43:19.007Z,12.00
2019-01-26T11:46:13.079Z,9.15
2019-01-26T11:48:45.291Z,11.33
2019-01-26T11:51:45.446Z,10.20
2019-01-26T11:54:14.467Z,7.07
2019-01-26T11:56:48.855Z,11.10
2019-01-26T11:59:18.694Z,14.13
2019-01-26T12:02:10.396Z,11.03
2019-01-26T12:04:45.780Z,16.20
2019-01-26T12:07:23.540Z,12.17
2019-01-26T12:09:52.567Z,11.37
2019-01-26T12:12:21.555Z,7.37
2019-01-26T12:14:50.672Z,21.70
2019-01-26T12:17:19.696Z,11.53
2019-01-26T12:19:48.640Z,7.67
2019-01-26T12:22:17.850Z,22.97
2019-01-26T12:24:46.908Z,5.93
2019-01-26T12:27:15.892Z,7.57
2019-01-26T12:29:44.822Z,10.03
2019-01-26T12:32:13.870Z,6.00
2019-01-26T12:34:42.793Z,6.87
2019-01-26T12:37:11.809Z,8.23
2019-01-26T12:39:40.907Z,6.93
2019-01-26T12:42:09.866Z,7.93
2019-01-26T12:44:38.800Z,6.63
2019-01-26T12:47:07.947Z,6.53
2019-01-26T12:49:36.889Z,6.77
2019-01-26T12:52:05.969Z,6.70
2019-01-26T12:54:35.168Z,6.90
2019-01-26T12:57:04.184Z,8.90
2019-01-26T12:59:33.112Z,11.10
2019-01-26T13:02:02.118Z,8.37
2019-01-26T13:04:31.233Z,8.73
2019-01-26T13:07:00.212Z,8.07
2019-01-26T13:09:29.286Z,9.47
2019-01-26T13:11:58.239Z,6.37
2019-01-26T13:14:27.223Z,8.67
2019-01-26T13:16:56.285Z,22.53
2019-01-26T13:19:25.215Z,9.40
2019-01-26T13:21:54.176Z,15.97
2019-01-26T13:24:23.222Z,15.80
2019-01-26T13:26:52.176Z,10.00
2019-01-26T13:29:21.138Z,10.67
2019-01-26T13:31:50.248Z,9.40
2019-01-26T13:34:19.196Z,8.67
2019-01-26T13:36:48.161Z,13.53
2019-01-26T13:39:17.291Z,9.13
2019-01-26T13:41:47.111Z,9.33
2019-01-26T13:44:16.071Z,10.27
2019-01-26T13:46:45.097Z,10.17
2019-01-26T13:49:14.055Z,8.57
2019-01-26T13:51:43.442Z,7.87
2019-01-26T13:54:12.495Z,7.40
2019-01-26T13:56:41.528Z,7.47
2019-01-26T13:59:13.776Z,7.73
2019-01-26T14:01:42.861Z,6.67
2019-01-26T14:04:11.786Z,6.40
2019-01-26T14:06:40.791Z,8.70
2019-01-26T14:09:10.293Z,7.07
2019-01-26T14:11:39.222Z,7.10
2019-01-26T14:14:08.356Z,6.57
2019-01-26T14:16:37.456Z,6.70
2019-01-26T14:19:06.337Z,6.03
2019-01-26T14:21:35.312Z,5.93
2019-01-26T14:24:04.517Z,10.97
2019-01-26T14:26:33.499Z,9.07
2019-01-26T14:29:02.556Z,7.00
2019-01-26T14:31:31.576Z,7.27
2019-01-26T14:34:00.499Z,7.70
2019-01-26T14:36:29.588Z,12.13
2019-01-26T14:38:58.562Z,6.30
2019-01-26T14:41:27.711Z,7.27
2019-01-26T14:43:56.675Z,10.20
2019-01-26T14:46:25.703Z,9.93
2019-01-26T14:48:54.653Z,16.23
2019-01-26T14:51:23.611Z,8.93
2019-01-26T14:53:53.860Z,19.07
2019-01-26T14:56:22.862Z,8.47
2019-01-26T14:58:51.847Z,26.50
2019-01-26T15:01:20.825Z,15.30
2019-01-26T15:03:49.760Z,11.83
2019-01-26T15:06:18.760Z,13.07
2019-01-26T15:08:47.796Z,11.93
2019-01-26T15:11:16.720Z,9.87
2019-01-26T15:13:45.699Z,8.70
2019-01-26T15:16:14.639Z,7.27
2019-01-26T15:18:43.589Z,8.30
2019-01-26T15:21:12.605Z,8.20
2019-01-26T15:23:41.532Z,7.20
2019-01-26T15:26:10.473Z,12.07
2019-01-26T15:28:43.007Z,10.40
2019-01-26T15:31:10.200Z,6.90
2019-01-26T15:33:39.213Z,7.40
2019-01-26T15:36:09.195Z,9.53
2019-01-26T15:38:38.449Z,15.77
2019-01-26T15:41:07.375Z,13.77
2019-01-26T15:43:36.341Z,13.00
2019-01-26T15:46:05.406Z,11.20
2019-01-26T15:48:34.353Z,18.73
2019-01-26T15:51:03.399Z,14.70
2019-01-26T15:53:32.379Z,11.83
2019-01-26T15:56:01.419Z,10.63
2019-01-26T15:58:30.409Z,11.30
2019-01-26T16:00:59.468Z,10.97
2019-01-26T16:03:28.505Z,10.50
2019-01-26T16:05:57.456Z,11.50
2019-01-26T16:08:26.432Z,14.30
2019-01-26T16:10:57.872Z,11.80
2019-01-26T16:13:26.874Z,11.97
2019-01-26T16:15:55.900Z,11.70
2019-01-26T16:18:24.907Z,12.30
2019-01-26T16:20:53.843Z,18.30
2019-01-26T16:23:22.889Z,16.00
2019-01-26T16:25:53.466Z,12.17
2019-01-26T16:28:22.416Z,13.57
2019-01-26T16:30:51.680Z,15.83
2019-01-26T16:33:20.733Z,15.77
2019-01-26T16:35:49.751Z,15.67
2019-01-26T16:38:18.845Z,14.93
2019-01-26T16:40:47.889Z,13.17
2019-01-26T16:43:16.941Z,16.20
2019-01-26T16:45:46.016Z,14.17
2019-01-26T16:48:16.107Z,12.47
2019-01-26T16:50:45.262Z,11.67
2019-01-26T16:53:14.303Z,14.17
2019-01-26T16:55:43.419Z,13.43
2019-01-26T16:58:12.619Z,13.97
2019-01-26T17:00:47.085Z,13.07
2019-01-26T17:03:16.262Z,14.20
2019-01-26T17:05:45.357Z,12.93
2019-01-26T17:08:14.442Z,12.80
2019-01-26T17:10:43.518Z,13.90
2019-01-26T17:13:12.583Z,19.00
2019-01-26T17:15:41.557Z,18.87
2019-01-26T17:18:13.890Z,15.10
2019-01-26T17:20:42.910Z,14.83
2019-01-26T17:23:12.027Z,13.23
2019-01-26T17:25:41.207Z,11.50
2019-01-26T17:28:10.500Z,14.00
2019-01-26T17:30:40.919Z,14.97
2019-01-26T17:33:10.197Z,15.57
2019-01-26T17:35:42.363Z,21.73
2019-01-26T17:38:11.731Z,24.30
2019-01-26T17:40:40.691Z,18.40
2019-01-26T17:43:11.022Z,24.57
2019-01-26T17:45:40.272Z,16.87
2019-01-26T17:48:09.697Z,21.20
2019-01-26T17:50:42.262Z,18.53
2019-01-26T17:53:09.478Z,17.63
2019-01-26T17:55:38.639Z,18.63
2019-01-26T17:58:07.628Z,18.77
2019-01-26T18:00:57.674Z,17.07
2019-01-26T18:03:26.694Z,17.10
2019-01-26T18:05:55.774Z,15.67
2019-01-26T18:08:24.875Z,12.37
2019-01-26T18:10:53.962Z,14.37
2019-01-26T18:13:22.895Z,14.47
2019-01-26T18:15:51.868Z,17.67
2019-01-26T18:18:20.841Z,16.30
2019-01-26T18:20:49.929Z,15.27
2019-01-26T18:23:24.680Z,16.97
2019-01-26T18:25:53.769Z,16.63
2019-01-26T18:28:22.731Z,16.40
2019-01-26T18:30:51.823Z,16.27
2019-01-26T18:33:20.835Z,15.63
2019-01-26T18:35:49.939Z,18.03
2019-01-26T18:38:19.004Z,16.50
2019-01-26T18:40:48.008Z,16.47
2019-01-26T18:43:16.972Z,17.13
2019-01-26T18:45:46.108Z,14.83
2019-01-26T18:48:15.389Z,15.40
2019-01-26T18:50:46.309Z,15.17
2019-01-26T18:53:15.352Z,15.50
2019-01-26T18:55:45.473Z,26.80
2019-01-26T18:58:14.421Z,16.03
2019-01-26T19:00:46.611Z,19.00
2019-01-26T19:03:34.505Z,18.67
2019-01-26T19:06:03.939Z,18.23
2019-01-26T19:08:32.880Z,18.07
2019-01-26T19:11:01.835Z,18.37
2019-01-26T19:13:30.831Z,17.23
2019-01-26T19:15:59.770Z,17.10
2019-01-26T19:18:29.280Z,21.67
2019-01-26T19:21:03.074Z,19.57
2019-01-26T19:23:29.116Z,21.13
2019-01-26T19:25:58.053Z,21.23
2019-01-26T19:28:27.077Z,19.43
2019-01-26T19:30:56.095Z,18.37
2019-01-26T19:33:25.063Z,21.83
2019-01-26T19:35:54.131Z,23.13
2019-01-26T19:38:23.044Z,21.13
2019-01-26T19:40:52.068Z,16.50
2019-01-26T19:43:21.361Z,17.33
2019-01-26T19:45:50.387Z,22.50
2019-01-26T19:48:19.901Z,24.80
2019-01-26T19:50:49.073Z,17.63
2019-01-26T19:53:18.176Z,17.37
2019-01-26T19:55:47.148Z,15.67
2019-01-26T19:58:16.248Z,15.23
2019-01-26T20:00:45.172Z,15.87
2019-01-26T20:03:15.802Z,17.53
2019-01-26T20:05:48.181Z,19.43
2019-01-26T20:08:15.575Z,18.27
2019-01-26T20:10:44.639Z,18.27
2019-01-26T20:13:13.771Z,21.07
2019-01-26T20:15:42.748Z,18.67
2019-01-26T20:18:11.892Z,14.70
2019-01-26T20:20:41.040Z,16.87
2019-01-26T20:23:09.960Z,13.17
2019-01-26T20:25:39.048Z,17.00
2019-01-26T20:28:08.190Z,18.00
2019-01-26T20:30:38.520Z,15.37
2019-01-26T20:33:07.730Z,12.80
2019-01-26T20:35:36.973Z,13.87
2019-01-26T20:38:06.058Z,17.63
2019-01-26T20:40:35.151Z,13.73
2019-01-26T20:43:04.171Z,13.73
2019-01-26T20:45:33.276Z,13.43
2019-01-26T20:48:02.220Z,13.03
2019-01-26T20:50:31.142Z,15.17
2019-01-26T20:53:00.041Z,13.90
2019-01-26T20:55:29.066Z,13.50
2019-01-26T20:57:58.012Z,14.97
2019-01-26T21:00:28.863Z,16.60
2019-01-26T21:02:58.079Z,15.47
2019-01-26T21:05:27.307Z,15.53
2019-01-26T21:07:59.004Z,18.40
2019-01-26T21:10:29.304Z,16.27
2019-01-26T21:12:59.808Z,14.47
2019-01-26T21:15:31.637Z,14.90
2019-01-26T21:18:00.652Z,17.73
2019-01-26T21:20:29.617Z,17.63
2019-01-26T21:22:58.611Z,17.60
2019-01-26T21:25:27.676Z,15.90
2019-01-26T21:27:56.716Z,12.03
2019-01-26T21:30:27.396Z,11.47
2019-01-26T21:32:56.772Z,11.60
2019-01-26T21:35:26.256Z,13.40
2019-01-26T21:37:55.435Z,12.93
2019-01-26T21:40:29.404Z,12.40
2019-01-26T21:42:59.088Z,12.97
2019-01-26T21:45:28.223Z,12.87
2019-01-26T21:47:57.312Z,14.63
2019-01-26T21:50:28.578Z,10.33
2019-01-26T21:52:57.733Z,11.17
2019-01-26T21:55:26.874Z,12.33
2019-01-26T21:57:55.959Z,11.37
2019-01-26T22:00:31.030Z,13.33
2019-01-26T22:03:00.286Z,11.27
2019-01-26T22:05:29.657Z,10.87
2019-01-26T22:07:58.745Z,15.80
2019-01-26T22:10:27.885Z,14.70
2019-01-26T22:12:56.919Z,17.47
2019-01-26T22:15:26.119Z,18.73
2019-01-26T22:17:55.279Z,20.93
2019-01-26T22:20:26.079Z,15.53
2019-01-26T22:22:55.275Z,14.00
2019-01-26T22:25:24.474Z,17.07
2019-01-26T22:27:55.091Z,12.57
2019-01-26T22:30:28.927Z,11.60
2019-01-26T22:32:57.945Z,11.73
2019-01-26T22:35:27.134Z,11.13
2019-01-26T22:37:56.233Z,9.80
2019-01-26T22:40:27.408Z,10.60
2019-01-26T22:42:59.384Z,9.77
2019-01-26T22:45:28.371Z,10.70
2019-01-26T22:47:57.439Z,9.10
2019-01-26T22:50:26.571Z,10.30
2019-01-26T22:52:55.763Z,10.20
2019-01-26T22:55:24.847Z,9.07
2019-01-26T22:57:54.490Z,8.20
2019-01-26T23:01:07.038Z,8.77
2019-01-26T23:04:13.296Z,8.10
2019-01-26T23:07:13.911Z,7.27
2019-01-26T23:10:08.539Z,7.43
2019-01-26T23:12:58.657Z,7.87
2019-01-26T23:16:10.829Z,10.87
2019-01-26T23:19:11.475Z,6.43
2019-01-26T23:22:25.419Z,7.23
2019-01-26T23:25:15.185Z,7.00
2019-01-26T23:28:20.188Z,7.30
2019-01-26T23:31:20.977Z,6.77
2019-01-26T23:33:54.166Z,7.07
2019-01-26T23:36:23.463Z,6.27
2019-01-26T23:38:52.591Z,5.90
2019-01-26T23:41:21.671Z,6.60
2019-01-26T23:43:50.712Z,5.80
2019-01-26T23:46:19.616Z,6.23
2019-01-26T23:48:48.663Z,6.30
2019-01-26T23:51:17.582Z,5.70
2019-01-26T23:53:46.672Z,5.80
2019-01-26T23:56:15.612Z,5.93
2019-01-26T23:58:44.686Z,6.20
